Ulco, South Africa
Current Conditions -  °F | °C
As of 9:16 AM on Saturday 29 Nov 2014 (Local Time) from FAKM Reporting Station
Clear Clear  
Wind Chill: 77°   Ceiling: Unl
Heat Index: 78°   Visibility: 6mi
Dew Point: 48°   Wind: 9mph
Humidity: 36%   Direction: 40°NE
Pressure: 30.12"   Gusts: NA
Location:  28.33°S, 24.21°E
Report Text: FAKM 290716Z 04008KT CAVOK 25/09 Q1020
Loading
Personal Weather Stations






























Interactive Weather Map New forecast layout! Learn more

10-Day Weather Forecast

Advertisements
Track Severe Weather on mobile